createdAt,value
2022-08-17T00:00:42.830Z,99.90
2022-08-17T00:05:45.688Z,99.90
2022-08-17T00:10:48.732Z,99.90
2022-08-17T00:15:54.656Z,99.90
2022-08-17T00:20:57.665Z,99.90
2022-08-17T00:25:59.496Z,99.90
2022-08-17T00:31:03.063Z,99.90
2022-08-17T00:36:05.317Z,99.90
2022-08-17T00:41:09.480Z,99.90
2022-08-17T00:46:17.557Z,99.90
2022-08-17T00:51:25.833Z,99.90
2022-08-17T00:56:32.085Z,99.90
2022-08-17T01:01:36.108Z,99.90
2022-08-17T01:06:38.550Z,99.90
2022-08-17T01:11:40.706Z,99.90
2022-08-17T01:16:44.039Z,99.90
2022-08-17T01:21:53.082Z,99.90
2022-08-17T01:26:57.619Z,99.90
2022-08-17T01:32:03.992Z,99.90
2022-08-17T01:37:05.813Z,99.90
2022-08-17T01:42:15.454Z,99.90
2022-08-17T01:47:17.269Z,99.90
2022-08-17T01:52:20.165Z,99.90
2022-08-17T01:57:23.377Z,99.90
2022-08-17T02:02:31.183Z,99.90
2022-08-17T02:07:59.892Z,99.90
2022-08-17T02:12:56.798Z,99.90
2022-08-17T02:17:58.848Z,99.90
2022-08-17T02:23:02.007Z,99.90
2022-08-17T02:28:06.140Z,99.90
2022-08-17T02:33:11.417Z,99.90
2022-08-17T02:38:13.891Z,99.90
2022-08-17T02:43:17.100Z,99.90
2022-08-17T02:48:31.139Z,99.90
2022-08-17T02:53:35.535Z,99.90
2022-08-17T02:58:39.301Z,99.90
2022-08-17T03:03:41.338Z,99.90
2022-08-17T03:08:43.173Z,99.90
2022-08-17T03:13:46.441Z,99.90
2022-08-17T03:18:48.256Z,99.90
2022-08-17T03:23:54.463Z,99.90
2022-08-17T03:28:57.993Z,99.90
2022-08-17T03:33:59.907Z,99.90
2022-08-17T03:39:01.940Z,99.90
2022-08-17T03:44:05.525Z,99.90
2022-08-17T03:49:08.530Z,99.90
2022-08-17T03:54:11.657Z,99.90
2022-08-17T03:59:21.041Z,99.90
2022-08-17T04:04:27.750Z,99.90
2022-08-17T04:09:29.982Z,99.90
2022-08-17T04:14:33.757Z,99.90
2022-08-17T04:19:35.644Z,99.90
2022-08-17T04:24:37.513Z,99.90
2022-08-17T04:29:49.983Z,99.90
2022-08-17T04:34:57.554Z,99.90
2022-08-17T04:40:04.209Z,99.90
2022-08-17T04:45:08.686Z,99.90
2022-08-17T04:50:10.495Z,99.90
2022-08-17T04:55:15.077Z,99.90
2022-08-17T05:00:18.644Z,99.90
2022-08-17T05:05:34.660Z,99.90
2022-08-17T05:10:38.144Z,99.90
2022-08-17T05:15:57.663Z,99.90
2022-08-17T05:20:59.657Z,99.90
2022-08-17T05:26:01.475Z,99.90
2022-08-17T05:31:05.836Z,99.90
2022-08-17T05:36:10.289Z,99.90
2022-08-17T05:41:32.099Z,99.90
2022-08-17T05:46:39.125Z,99.90
2022-08-17T05:52:03.276Z,99.90
2022-08-17T05:57:34.740Z,99.90
2022-08-17T06:02:47.738Z,99.90
2022-08-17T06:07:57.762Z,99.90
2022-08-17T06:13:09.423Z,99.90
2022-08-17T06:18:19.238Z,99.90
2022-08-17T06:23:26.488Z,99.90
2022-08-17T06:28:35.261Z,99.90
2022-08-17T06:33:39.863Z,99.90
2022-08-17T06:38:51.785Z,99.90
2022-08-17T06:44:47.551Z,99.90
2022-08-17T06:49:43.861Z,99.90
2022-08-17T06:55:00.069Z,99.90
2022-08-17T07:00:05.126Z,99.90
2022-08-17T07:05:08.619Z,99.90
2022-08-17T07:10:11.605Z,99.90
2022-08-17T07:15:16.254Z,99.90
2022-08-17T07:20:21.868Z,99.90
2022-08-17T07:25:24.540Z,99.90
2022-08-17T07:30:28.601Z,99.90
2022-08-17T07:35:40.656Z,99.90
2022-08-17T07:40:47.762Z,99.90
2022-08-17T07:46:06.432Z,99.90
2022-08-17T07:51:21.853Z,99.90
2022-08-17T07:56:39.798Z,99.90
2022-08-17T08:01:45.692Z,99.90
2022-08-17T08:06:52.598Z,99.90
2022-08-17T08:11:54.536Z,99.90
2022-08-17T08:16:59.200Z,99.90
2022-08-17T08:22:08.111Z,99.90
2022-08-17T08:27:22.937Z,99.90
2022-08-17T08:32:39.713Z,99.90
2022-08-17T08:37:52.208Z,99.90
2022-08-17T08:43:02.640Z,99.90
2022-08-17T08:50:37.060Z,99.90
2022-08-17T08:54:27.034Z,99.90
2022-08-17T08:59:36.478Z,99.90
2022-08-17T09:05:13.865Z,99.90
2022-08-17T09:10:25.332Z,99.90
2022-08-17T09:15:30.833Z,99.90
2022-08-17T09:20:50.610Z,99.90
2022-08-17T09:25:59.815Z,99.90
2022-08-17T09:31:07.680Z,99.90
2022-08-17T09:36:13.421Z,99.90
2022-08-17T09:41:23.844Z,99.90
2022-08-17T09:46:30.481Z,99.90
2022-08-17T09:51:35.897Z,99.90
2022-08-17T09:57:18.121Z,99.90
2022-08-17T10:02:42.099Z,99.90
2022-08-17T10:07:50.498Z,99.90
2022-08-17T10:13:03.228Z,99.90
2022-08-17T10:18:31.978Z,99.90
2022-08-17T10:23:35.272Z,99.90
2022-08-17T10:28:44.009Z,99.90
2022-08-17T10:34:00.617Z,99.90
2022-08-17T10:39:10.958Z,99.90
2022-08-17T10:44:39.217Z,99.90
2022-08-17T10:50:34.067Z,99.90
2022-08-17T10:55:36.153Z,99.90
2022-08-17T11:01:06.870Z,99.90
2022-08-17T11:06:22.624Z,99.90
2022-08-17T11:12:25.610Z,99.90
2022-08-17T11:18:04.901Z,99.90
2022-08-17T11:23:33.050Z,99.90
2022-08-17T11:28:47.401Z,99.90
2022-08-17T11:33:58.095Z,99.90
2022-08-17T11:39:05.122Z,99.30
2022-08-17T11:44:31.019Z,95.80
2022-08-17T11:49:52.937Z,93.60
2022-08-17T11:55:00.254Z,87.60
2022-08-17T12:00:48.551Z,84.20
2022-08-17T12:06:22.589Z,80.70
2022-08-17T12:12:11.139Z,79.70
2022-08-17T12:17:06.414Z,76.40
2022-08-17T12:22:16.598Z,76.00
2022-08-17T12:27:46.112Z,71.70
2022-08-17T12:32:48.951Z,72.70
2022-08-17T12:37:52.557Z,72.70
2022-08-17T12:42:58.793Z,74.40
2022-08-17T12:48:01.902Z,75.00
2022-08-17T12:53:11.521Z,73.90
2022-08-17T12:58:20.377Z,73.50
2022-08-17T13:03:24.703Z,73.00
2022-08-17T13:08:31.585Z,72.50
2022-08-17T13:13:35.418Z,70.70
2022-08-17T13:18:41.593Z,70.60
2022-08-17T13:23:54.694Z,70.90
2022-08-17T13:28:57.123Z,71.20
2022-08-17T13:34:14.297Z,71.40
2022-08-17T13:39:20.916Z,71.20
2022-08-17T13:44:34.852Z,71.70
2022-08-17T13:49:41.553Z,70.10
2022-08-17T13:54:52.335Z,69.70
2022-08-17T14:00:08.487Z,67.00
2022-08-17T14:05:10.388Z,66.20
2022-08-17T14:10:16.381Z,64.40
2022-08-17T14:15:21.289Z,64.10
2022-08-17T14:20:23.296Z,61.70
2022-08-17T14:26:04.255Z,60.80
2022-08-17T14:31:08.640Z,60.20
2022-08-17T14:36:10.540Z,58.90
2022-08-17T14:41:12.395Z,60.60
2022-08-17T14:46:16.120Z,60.10
2022-08-17T14:51:18.010Z,58.20
2022-08-17T14:56:20.048Z,59.00
2022-08-17T15:01:24.997Z,57.90
2022-08-17T15:06:29.323Z,57.10
2022-08-17T15:11:31.211Z,57.70
2022-08-17T15:16:34.977Z,58.00
2022-08-17T15:21:36.824Z,57.10
2022-08-17T15:26:38.957Z,57.40
2022-08-17T15:31:42.297Z,59.20
2022-08-17T15:36:49.369Z,56.60
2022-08-17T15:41:58.354Z,56.50
2022-08-17T15:47:02.105Z,54.80
2022-08-17T15:52:15.985Z,55.50
2022-08-17T15:57:17.958Z,54.00
2022-08-17T16:03:44.865Z,53.20
2022-08-17T16:07:45.796Z,52.70
2022-08-17T16:12:49.011Z,53.70
2022-08-17T16:17:52.515Z,53.50
2022-08-17T16:22:55.109Z,52.70
2022-08-17T16:27:57.376Z,53.90
2022-08-17T16:33:01.763Z,54.30
2022-08-17T16:38:03.563Z,54.90
2022-08-17T16:43:05.811Z,55.20
2022-08-17T16:53:59.139Z,55.10
2022-08-17T16:59:14.306Z,56.80
2022-08-17T17:04:23.721Z,58.00
2022-08-17T17:09:31.373Z,58.80
2022-08-17T17:14:36.832Z,59.30
2022-08-17T17:19:45.524Z,59.50
2022-08-17T17:25:00.338Z,59.50
2022-08-17T17:30:08.812Z,60.60
2022-08-17T17:35:15.438Z,60.40
2022-08-17T17:40:23.229Z,60.60
2022-08-17T17:45:29.128Z,60.80
2022-08-17T17:50:37.205Z,61.50
2022-08-17T17:55:50.074Z,62.50
2022-08-17T18:01:03.540Z,61.50
2022-08-17T18:06:17.121Z,62.30
2022-08-17T18:11:45.883Z,62.20
2022-08-17T18:16:56.164Z,62.60
2022-08-17T18:22:06.652Z,62.80
2022-08-17T18:27:22.460Z,64.00
2022-08-17T18:32:33.897Z,64.50
2022-08-17T18:37:41.068Z,66.00
2022-08-17T18:42:55.236Z,67.10
2022-08-17T18:47:57.982Z,67.60
2022-08-17T18:53:20.024Z,69.00
2022-08-17T18:58:29.769Z,70.50
2022-08-17T19:03:31.659Z,72.30
2022-08-17T19:08:35.674Z,73.00
2022-08-17T19:13:43.481Z,73.90
2022-08-17T19:18:48.711Z,75.50
2022-08-17T19:23:57.291Z,76.70
2022-08-17T19:29:06.654Z,78.00
2022-08-17T19:34:09.563Z,80.40
2022-08-17T19:39:20.991Z,82.00
2022-08-17T19:44:44.054Z,84.10
2022-08-17T19:49:56.453Z,87.50
2022-08-17T19:55:04.612Z,90.20
2022-08-17T20:00:10.212Z,90.60
2022-08-17T20:05:15.704Z,92.80
2022-08-17T20:10:28.853Z,95.40
2022-08-17T20:15:35.679Z,96.70
2022-08-17T20:20:47.009Z,97.40
2022-08-17T20:25:58.427Z,95.50
2022-08-17T20:31:02.268Z,97.60
2022-08-17T20:36:21.323Z,99.00
2022-08-17T20:41:24.940Z,99.90
2022-08-17T20:46:50.031Z,99.90
2022-08-17T20:52:01.648Z,99.90
2022-08-17T20:57:09.197Z,99.90
2022-08-17T21:02:22.840Z,99.90
2022-08-17T21:07:27.804Z,99.90
2022-08-17T21:12:41.014Z,99.90
2022-08-17T21:17:49.969Z,99.90
2022-08-17T21:23:04.595Z,99.90
2022-08-17T21:28:17.225Z,99.90
2022-08-17T21:33:29.292Z,99.90
2022-08-17T21:38:36.745Z,99.90
2022-08-17T21:43:48.256Z,99.90
2022-08-17T21:48:54.698Z,99.90
2022-08-17T21:53:58.957Z,99.90
2022-08-17T21:59:04.167Z,99.90
2022-08-17T22:04:19.417Z,99.90
2022-08-17T22:09:23.118Z,99.90
2022-08-17T22:14:27.632Z,99.90
2022-08-17T22:19:53.633Z,99.90
2022-08-17T22:24:58.828Z,99.90
2022-08-17T22:30:00.505Z,99.90
2022-08-17T22:35:44.411Z,99.90
2022-08-17T22:40:50.763Z,99.90
2022-08-17T22:45:56.506Z,99.90
2022-08-17T22:51:12.295Z,99.90
2022-08-17T22:56:18.653Z,99.90
2022-08-17T23:01:26.644Z,99.90
2022-08-17T23:06:29.064Z,99.90
2022-08-17T23:11:42.894Z,99.90
2022-08-17T23:16:51.988Z,99.90
2022-08-17T23:21:55.429Z,99.90
2022-08-17T23:26:58.876Z,99.90
2022-08-17T23:32:01.489Z,99.90
2022-08-17T23:37:03.982Z,99.90
2022-08-17T23:42:09.303Z,99.90
2022-08-17T23:47:11.341Z,99.90
2022-08-17T23:57:36.089Z,99.90
